createdAt,value
2018-07-21T00:02:03.259Z,5.97
2018-07-21T00:04:36.212Z,8.03
2018-07-21T00:07:08.926Z,6.13
2018-07-21T00:09:39.595Z,6.57
2018-07-21T00:12:09.642Z,7.17
2018-07-21T00:14:40.019Z,8.80
2018-07-21T00:17:11.338Z,8.07
2018-07-21T00:19:42.114Z,7.37
2018-07-21T00:22:12.774Z,6.70
2018-07-21T00:24:43.535Z,6.47
2018-07-21T00:27:14.258Z,11.27
2018-07-21T00:29:45.291Z,9.03
2018-07-21T00:32:15.715Z,6.47
2018-07-21T00:34:45.939Z,6.43
2018-07-21T00:37:16.696Z,8.13
2018-07-21T00:39:46.894Z,8.43
2018-07-21T00:42:17.022Z,7.30
2018-07-21T00:44:47.638Z,9.00
2018-07-21T00:47:18.334Z,7.00
2018-07-21T00:49:48.769Z,6.07
2018-07-21T00:52:20.294Z,6.53
2018-07-21T00:54:51.098Z,7.10
2018-07-21T00:57:21.420Z,6.60
2018-07-21T00:59:51.815Z,7.40
2018-07-21T01:02:23.302Z,6.67
2018-07-21T01:04:54.470Z,8.83
2018-07-21T01:07:24.834Z,8.80
2018-07-21T01:09:55.077Z,8.77
2018-07-21T01:12:25.148Z,9.60
2018-07-21T01:14:55.493Z,9.23
2018-07-21T01:17:25.730Z,7.03
2018-07-21T01:19:56.294Z,6.67
2018-07-21T01:22:26.534Z,6.70
2018-07-21T01:24:56.765Z,7.43
2018-07-21T01:27:27.050Z,7.13
2018-07-21T01:29:57.130Z,9.60
2018-07-21T01:32:27.402Z,6.60
2018-07-21T01:34:57.626Z,7.53
2018-07-21T01:37:29.373Z,6.00
2018-07-21T01:39:59.541Z,9.33
2018-07-21T01:42:29.650Z,6.90
2018-07-21T01:45:01.358Z,7.10
2018-07-21T01:47:31.555Z,10.50
2018-07-21T01:50:01.635Z,5.90
2018-07-21T01:52:33.244Z,7.87
2018-07-21T01:55:04.263Z,7.57
2018-07-21T01:57:35.755Z,7.87
2018-07-21T02:00:08.048Z,10.10
2018-07-21T02:02:38.805Z,6.30
2018-07-21T02:05:10.425Z,5.70
2018-07-21T02:07:42.098Z,6.23
2018-07-21T02:10:12.635Z,6.07
2018-07-21T02:12:42.985Z,6.77
2018-07-21T02:15:13.665Z,6.03
2018-07-21T02:17:44.514Z,6.57
2018-07-21T02:20:15.089Z,6.60
2018-07-21T02:22:46.427Z,10.50
2018-07-21T02:25:23.822Z,6.43
2018-07-21T02:27:54.476Z,8.47
2018-07-21T02:30:24.838Z,7.43
2018-07-21T02:32:55.324Z,8.17
2018-07-21T02:35:25.843Z,6.10
2018-07-21T02:37:56.893Z,6.73
2018-07-21T02:40:27.361Z,6.83
2018-07-21T02:43:02.294Z,6.27
2018-07-21T02:45:34.872Z,7.30
2018-07-21T02:48:05.523Z,11.10
2018-07-21T02:50:35.889Z,8.60
2018-07-21T02:53:06.293Z,7.87
2018-07-21T02:55:37.963Z,7.77
2018-07-21T02:58:08.456Z,8.83
2018-07-21T03:00:39.790Z,8.63
2018-07-21T03:03:10.440Z,6.30
2018-07-21T03:05:40.915Z,6.90
2018-07-21T03:08:11.864Z,8.10
2018-07-21T03:10:42.217Z,8.67
2018-07-21T03:13:12.531Z,9.73
2018-07-21T03:15:43.319Z,9.50
2018-07-21T03:18:15.666Z,8.03
2018-07-21T03:20:46.991Z,7.17
2018-07-21T03:23:17.802Z,6.20
2018-07-21T03:25:48.111Z,6.97
2018-07-21T03:28:18.799Z,5.20
2018-07-21T03:30:49.813Z,8.83
2018-07-21T03:33:23.258Z,7.47
2018-07-21T03:35:53.759Z,8.03
2018-07-21T03:38:24.793Z,5.77
2018-07-21T03:40:55.198Z,6.00
2018-07-21T03:43:25.726Z,8.30
2018-07-21T03:45:56.166Z,8.60
2018-07-21T03:48:26.599Z,9.10
2018-07-21T03:50:57.470Z,7.17
2018-07-21T03:53:28.093Z,8.03
2018-07-21T03:56:00.748Z,10.70
2018-07-21T03:58:31.532Z,6.57
2018-07-21T04:01:01.603Z,6.07
2018-07-21T04:03:31.938Z,5.87
2018-07-21T04:06:02.427Z,6.77
2018-07-21T04:08:33.521Z,7.90
2018-07-21T04:11:05.955Z,5.90
2018-07-21T04:13:37.996Z,7.23
2018-07-21T04:16:09.682Z,7.67
2018-07-21T04:18:40.016Z,6.70
2018-07-21T04:21:12.135Z,6.60
2018-07-21T04:23:42.856Z,7.50
2018-07-21T04:26:14.977Z,6.70
2018-07-21T04:28:46.397Z,7.70
2018-07-21T04:31:16.967Z,7.80
2018-07-21T04:33:47.246Z,7.43
2018-07-21T04:36:18.253Z,8.20
2018-07-21T04:38:48.995Z,6.73
2018-07-21T04:41:20.510Z,7.30
2018-07-21T04:43:51.891Z,12.30
2018-07-21T04:46:22.519Z,7.77
2018-07-21T04:48:53.461Z,9.70
2018-07-21T04:51:24.824Z,7.87
2018-07-21T04:53:55.579Z,6.97
2018-07-21T04:56:25.892Z,6.50
2018-07-21T04:58:58.079Z,9.57
2018-07-21T05:01:28.334Z,6.90
2018-07-21T05:04:01.550Z,12.33
2018-07-21T05:06:32.882Z,6.93
2018-07-21T05:09:04.698Z,7.10
2018-07-21T05:11:37.463Z,6.90
2018-07-21T05:14:09.297Z,7.10
2018-07-21T05:16:40.751Z,9.83
2018-07-21T05:19:11.164Z,7.83
2018-07-21T05:21:41.610Z,7.77
2018-07-21T05:24:12.536Z,6.73
2018-07-21T05:26:43.070Z,6.93
2018-07-21T05:29:14.212Z,7.03
2018-07-21T05:31:46.845Z,6.87
2018-07-21T05:34:17.772Z,7.50
2018-07-21T05:36:48.463Z,6.87
2018-07-21T05:39:18.967Z,9.03
2018-07-21T05:41:49.173Z,9.00
2018-07-21T05:44:19.597Z,7.83
2018-07-21T05:46:49.829Z,5.50
2018-07-21T05:49:20.475Z,8.87
2018-07-21T05:51:51.355Z,6.03
2018-07-21T05:54:22.522Z,7.27
2018-07-21T05:56:53.493Z,6.60
2018-07-21T05:59:24.213Z,7.67
2018-07-21T06:01:56.158Z,7.53
2018-07-21T06:04:26.904Z,9.00
2018-07-21T06:06:57.473Z,6.50
2018-07-21T06:09:27.538Z,8.47
2018-07-21T06:11:59.310Z,7.77
2018-07-21T06:14:30.767Z,7.57
2018-07-21T06:17:01.277Z,9.27
2018-07-21T06:19:36.109Z,8.50
2018-07-21T06:22:08.061Z,6.30
2018-07-21T06:24:40.106Z,9.33
2018-07-21T06:27:11.200Z,9.40
2018-07-21T06:29:43.321Z,8.40
2018-07-21T06:32:15.178Z,7.33
2018-07-21T06:34:52.737Z,7.13
2018-07-21T06:37:22.816Z,6.17
2018-07-21T06:39:53.466Z,6.10
2018-07-21T06:42:24.934Z,9.03
2018-07-21T06:44:55.149Z,8.47
2018-07-21T06:47:25.704Z,7.73
2018-07-21T06:49:56.313Z,6.27
2018-07-21T06:52:26.799Z,7.67
2018-07-21T06:54:58.746Z,9.27
2018-07-21T06:57:29.539Z,9.17
2018-07-21T07:00:02.921Z,7.47
2018-07-21T07:02:33.113Z,7.73
2018-07-21T07:05:03.258Z,7.53
2018-07-21T07:07:33.633Z,7.20
2018-07-21T07:10:04.651Z,6.97
2018-07-21T07:12:34.888Z,8.60
2018-07-21T07:15:06.279Z,7.43
2018-07-21T07:17:36.555Z,6.60
2018-07-21T07:20:07.345Z,8.03
2018-07-21T07:22:37.778Z,14.03
2018-07-21T07:25:08.522Z,6.70
2018-07-21T07:27:38.784Z,8.07
2018-07-21T07:30:09.611Z,7.80
2018-07-21T07:32:40.751Z,11.93
2018-07-21T07:35:12.284Z,9.13
2018-07-21T07:37:42.507Z,11.13
2018-07-21T07:40:13.274Z,10.13
2018-07-21T07:42:43.505Z,8.97
2018-07-21T07:45:13.759Z,10.53
2018-07-21T07:47:44.466Z,11.50
2018-07-21T07:50:14.637Z,8.53
2018-07-21T07:52:44.893Z,10.47
2018-07-21T07:55:15.137Z,9.07
2018-07-21T07:57:46.976Z,12.53
2018-07-21T08:00:17.178Z,10.13
2018-07-21T08:02:47.382Z,12.23
2018-07-21T08:05:17.768Z,12.97
2018-07-21T08:07:48.372Z,10.37
2018-07-21T08:10:19.170Z,12.57
2018-07-21T08:12:50.646Z,11.03
2018-07-21T08:15:21.428Z,11.30
2018-07-21T08:17:52.235Z,17.40
2018-07-21T08:20:23.002Z,18.40
2018-07-21T08:22:53.612Z,15.03
2018-07-21T08:25:24.063Z,12.10
2018-07-21T08:27:57.395Z,16.30
2018-07-21T08:30:28.553Z,11.13
2018-07-21T08:32:58.954Z,29.97
2018-07-21T08:35:29.057Z,21.27
2018-07-21T08:37:59.224Z,15.93
2018-07-21T08:40:29.652Z,18.53
2018-07-21T08:43:00.223Z,22.80
2018-07-21T08:45:30.807Z,17.63
2018-07-21T08:48:02.015Z,13.77
2018-07-21T08:50:32.645Z,13.33
2018-07-21T08:53:03.274Z,13.13
2018-07-21T08:55:33.987Z,12.77
2018-07-21T08:58:04.471Z,13.70
2018-07-21T09:00:34.903Z,13.70
2018-07-21T09:03:05.000Z,13.23
2018-07-21T09:05:35.164Z,13.50
2018-07-21T09:08:05.435Z,14.83
2018-07-21T09:10:37.567Z,12.53
2018-07-21T09:13:09.668Z,13.33
2018-07-21T09:15:40.233Z,14.70
2018-07-21T09:18:10.669Z,14.30
2018-07-21T09:20:41.260Z,14.30
2018-07-21T09:23:11.628Z,14.57
2018-07-21T09:25:43.811Z,16.07
2018-07-21T09:28:16.397Z,16.23
2018-07-21T09:30:47.797Z,19.67
2018-07-21T09:33:19.851Z,20.33
2018-07-21T09:35:50.956Z,16.20
2018-07-21T09:38:21.289Z,14.47
2018-07-21T09:40:52.099Z,16.00
2018-07-21T09:43:26.971Z,14.17
2018-07-21T09:45:59.224Z,14.97
2018-07-21T09:48:29.340Z,14.63
2018-07-21T09:51:01.923Z,16.60
2018-07-21T09:53:32.683Z,15.53
2018-07-21T09:56:03.557Z,16.47
2018-07-21T09:58:34.978Z,14.83
2018-07-21T10:01:07.751Z,17.23
2018-07-21T10:03:40.370Z,17.70
2018-07-21T10:06:12.159Z,15.47
2018-07-21T10:08:43.071Z,13.90
2018-07-21T10:11:14.281Z,14.97
2018-07-21T10:13:45.674Z,17.23
2018-07-21T10:16:16.010Z,15.90
2018-07-21T10:18:47.337Z,20.57
2018-07-21T10:21:17.594Z,17.03
2018-07-21T10:23:52.101Z,15.73
2018-07-21T10:26:27.958Z,20.23
2018-07-21T10:29:03.095Z,14.63
2018-07-21T10:31:33.524Z,19.10
2018-07-21T10:34:03.740Z,20.73
2018-07-21T10:36:44.635Z,17.90
2018-07-21T10:39:16.215Z,14.90
2018-07-21T10:41:48.022Z,14.00
2018-07-21T10:44:18.546Z,12.70
2018-07-21T10:46:50.491Z,13.90
2018-07-21T10:49:28.900Z,16.63
2018-07-21T10:51:59.669Z,16.23
2018-07-21T10:54:32.358Z,20.03
2018-07-21T10:57:04.881Z,12.80
2018-07-21T10:59:36.433Z,12.70
2018-07-21T11:02:08.296Z,14.20
2018-07-21T11:04:38.727Z,15.93
2018-07-21T11:07:09.492Z,15.67
2018-07-21T11:09:47.572Z,18.07
2018-07-21T11:12:19.617Z,16.87
2018-07-21T11:14:50.526Z,19.20
2018-07-21T11:17:22.309Z,31.00
2018-07-21T11:19:59.588Z,25.27
2018-07-21T11:22:31.541Z,32.07
2018-07-21T11:25:02.845Z,25.37
2018-07-21T11:27:41.418Z,19.57
2018-07-21T11:30:23.374Z,27.63
2018-07-21T11:32:55.711Z,22.20
2018-07-21T11:35:26.619Z,25.40
2018-07-21T11:37:58.325Z,19.27
2018-07-21T11:40:30.343Z,19.80
2018-07-21T11:43:01.611Z,22.93
2018-07-21T11:45:32.478Z,22.10
2018-07-21T11:48:04.646Z,23.77
2018-07-21T11:50:36.026Z,22.30
2018-07-21T11:53:07.569Z,18.77
2018-07-21T11:55:40.064Z,18.87
2018-07-21T11:58:12.371Z,19.83
2018-07-21T12:00:45.335Z,17.27
2018-07-21T12:03:16.070Z,19.70
2018-07-21T12:05:46.271Z,18.43
2018-07-21T12:08:19.527Z,17.37
2018-07-21T12:10:50.054Z,18.33
2018-07-21T12:13:20.261Z,20.63
2018-07-21T12:15:50.766Z,18.13
2018-07-21T12:18:21.180Z,17.43
2018-07-21T12:20:51.311Z,18.73
2018-07-21T12:23:21.654Z,19.37
2018-07-21T12:25:52.127Z,19.70
2018-07-21T12:28:22.582Z,18.93
2018-07-21T12:30:54.047Z,17.30
2018-07-21T12:33:25.664Z,18.60
2018-07-21T12:35:57.723Z,17.47
2018-07-21T12:38:28.449Z,14.07
2018-07-21T12:40:58.749Z,14.40
2018-07-21T12:43:30.273Z,13.87
2018-07-21T12:46:00.562Z,13.63
2018-07-21T12:48:35.545Z,15.40
2018-07-21T12:51:05.680Z,10.67
2018-07-21T12:53:39.566Z,12.30
2018-07-21T12:56:12.278Z,11.17
2018-07-21T12:58:43.257Z,12.97
2018-07-21T13:01:14.245Z,10.30
2018-07-21T13:03:47.657Z,10.50
2018-07-21T13:06:23.321Z,9.03
2018-07-21T13:08:55.493Z,9.83
2018-07-21T13:11:27.130Z,9.40
2018-07-21T13:13:58.081Z,11.73
2018-07-21T13:16:29.605Z,9.40
2018-07-21T13:19:02.467Z,9.77
2018-07-21T13:21:35.833Z,9.60
2018-07-21T13:24:07.322Z,9.30
2018-07-21T13:26:38.707Z,11.07
2018-07-21T13:29:09.734Z,9.57
2018-07-21T13:31:50.617Z,9.00
2018-07-21T13:34:21.390Z,9.97
2018-07-21T13:36:51.533Z,9.23
2018-07-21T13:39:21.578Z,9.37
2018-07-21T13:41:56.944Z,10.00
2018-07-21T13:44:29.560Z,9.33
2018-07-21T13:47:03.795Z,10.30
2018-07-21T13:49:36.088Z,10.20
2018-07-21T13:52:08.503Z,10.53
2018-07-21T13:54:41.430Z,10.20
2018-07-21T13:57:12.677Z,9.83
2018-07-21T13:59:47.599Z,10.37
2018-07-21T14:02:20.946Z,10.83
2018-07-21T14:04:54.220Z,11.43
2018-07-21T14:07:26.370Z,11.07
2018-07-21T14:09:56.806Z,11.67
2018-07-21T14:12:37.609Z,10.90
2018-07-21T14:15:08.151Z,11.53
2018-07-21T14:17:39.089Z,11.73
2018-07-21T14:20:10.692Z,13.00
2018-07-21T14:22:42.969Z,12.53
2018-07-21T14:25:19.777Z,12.47
2018-07-21T14:27:51.270Z,12.20
2018-07-21T14:30:26.434Z,14.50
2018-07-21T14:32:57.843Z,12.53
2018-07-21T14:35:31.312Z,11.80
2018-07-21T14:38:01.592Z,12.50
2018-07-21T14:40:32.466Z,11.70
2018-07-21T14:43:02.929Z,11.97
2018-07-21T14:45:33.490Z,12.10
2018-07-21T14:48:05.620Z,11.40
2018-07-21T14:50:37.777Z,11.50
2018-07-21T14:53:07.837Z,12.67
2018-07-21T14:55:43.740Z,11.27
2018-07-21T14:58:15.548Z,12.13
2018-07-21T15:00:47.795Z,10.60
2018-07-21T15:03:18.550Z,10.97
2018-07-21T15:05:48.918Z,10.27
2018-07-21T15:08:19.502Z,11.10
2018-07-21T15:10:50.457Z,11.73
2018-07-21T15:13:21.274Z,11.07
2018-07-21T15:15:56.334Z,11.63
2018-07-21T15:18:32.198Z,11.33
2018-07-21T15:21:03.274Z,10.20
2018-07-21T15:23:34.197Z,11.23
2018-07-21T15:26:04.895Z,11.20
2018-07-21T15:28:35.224Z,10.83
2018-07-21T15:31:05.469Z,12.43
2018-07-21T15:33:36.463Z,11.97
2018-07-21T15:36:08.106Z,11.80
2018-07-21T15:38:39.734Z,10.93
2018-07-21T15:41:10.315Z,12.23
2018-07-21T15:43:42.772Z,11.87
2018-07-21T15:46:14.427Z,11.17
2018-07-21T15:48:47.354Z,11.53
2018-07-21T15:51:17.999Z,11.23
2018-07-21T15:53:48.122Z,10.93
2018-07-21T15:56:18.730Z,13.60
2018-07-21T15:58:50.047Z,12.53
2018-07-21T16:01:20.123Z,16.07
2018-07-21T16:03:51.399Z,11.50
2018-07-21T16:06:21.887Z,11.83
2018-07-21T16:08:53.046Z,10.63
2018-07-21T16:11:26.442Z,10.93
2018-07-21T16:13:59.935Z,10.60
2018-07-21T16:16:32.348Z,10.87
2018-07-21T16:19:02.428Z,10.93
2018-07-21T16:21:35.034Z,10.70
2018-07-21T16:24:05.435Z,12.67
2018-07-21T16:26:35.559Z,11.73
2018-07-21T16:29:08.306Z,11.40
2018-07-21T16:31:45.582Z,10.50
2018-07-21T16:34:15.610Z,11.20
2018-07-21T16:36:45.752Z,11.13
2018-07-21T16:39:16.351Z,11.60
2018-07-21T16:41:48.093Z,12.53
2018-07-21T16:44:18.571Z,11.50
2018-07-21T16:46:49.749Z,11.93
2018-07-21T16:49:21.302Z,12.57
2018-07-21T16:51:51.367Z,12.97
2018-07-21T16:54:21.484Z,13.67
2018-07-21T16:56:52.015Z,11.27
2018-07-21T16:59:24.089Z,11.77
2018-07-21T17:01:54.159Z,11.00
2018-07-21T17:04:24.261Z,10.70
2018-07-21T17:06:54.350Z,10.43
2018-07-21T17:09:25.062Z,10.70
2018-07-21T17:11:55.427Z,10.13
2018-07-21T17:14:26.860Z,11.20
2018-07-21T17:17:01.340Z,10.17
2018-07-21T17:19:35.671Z,11.00
2018-07-21T17:22:06.404Z,12.57
2018-07-21T17:24:37.137Z,12.17
2018-07-21T17:27:08.877Z,11.00
2018-07-21T17:29:39.432Z,9.33
2018-07-21T17:32:10.445Z,9.97
2018-07-21T17:34:40.530Z,9.47
2018-07-21T17:37:11.936Z,9.73
2018-07-21T17:39:43.394Z,9.73
2018-07-21T17:42:18.781Z,9.33
2018-07-21T17:44:50.341Z,9.23
2018-07-21T17:47:23.950Z,8.87
2018-07-21T17:49:57.463Z,9.87
2018-07-21T17:57:11.013Z,10.60
2018-07-21T17:59:41.564Z,8.80
2018-07-21T18:02:11.999Z,8.90
2018-07-21T18:04:46.335Z,9.50
2018-07-21T18:07:16.618Z,9.60
2018-07-21T18:09:47.164Z,9.40
2018-07-21T18:12:18.708Z,8.97
2018-07-21T18:14:51.468Z,9.10
2018-07-21T18:17:21.545Z,8.87
2018-07-21T18:19:52.916Z,8.87
2018-07-21T18:22:23.739Z,9.10
2018-07-21T18:24:55.324Z,8.70
2018-07-21T18:27:26.075Z,9.57
2018-07-21T18:29:56.781Z,8.07
2018-07-21T18:32:26.943Z,9.07
2018-07-21T18:34:57.379Z,8.43
2018-07-21T18:37:29.298Z,8.47
2018-07-21T18:40:03.397Z,9.07
2018-07-21T18:42:36.346Z,8.63
2018-07-21T18:45:06.667Z,9.00
2018-07-21T18:47:38.203Z,9.40
2018-07-21T18:50:10.140Z,8.43
2018-07-21T18:52:42.162Z,8.60
2018-07-21T18:55:12.246Z,8.20
2018-07-21T18:57:44.676Z,8.60
2018-07-21T19:00:18.818Z,8.50
2018-07-21T19:02:49.659Z,8.47
2018-07-21T19:05:19.751Z,8.67
2018-07-21T19:07:51.409Z,8.63
2018-07-21T19:10:21.506Z,9.77
2018-07-21T19:12:53.402Z,10.30
2018-07-21T19:15:29.808Z,9.40
2018-07-21T19:18:01.998Z,9.23
2018-07-21T19:20:37.409Z,9.13
2018-07-21T19:23:09.399Z,8.83
2018-07-21T19:25:45.541Z,8.60
2018-07-21T19:28:17.197Z,9.40
2018-07-21T19:30:48.307Z,8.83
2018-07-21T19:33:23.873Z,8.97
2018-07-21T19:36:01.619Z,8.77
2018-07-21T19:38:32.483Z,8.37
2018-07-21T19:44:26.298Z,9.47
2018-07-21T19:46:58.027Z,8.60
2018-07-21T19:49:30.369Z,8.90
2018-07-21T19:52:03.796Z,8.03
2018-07-21T19:54:34.954Z,7.80
2018-07-21T19:57:07.759Z,9.97
2018-07-21T19:59:39.447Z,8.33
2018-07-21T20:02:13.626Z,9.03
2018-07-21T20:04:44.411Z,8.53
2018-07-21T20:07:16.350Z,9.23
2018-07-21T20:09:46.586Z,9.00
2018-07-21T20:12:18.205Z,9.10
2018-07-21T20:14:57.077Z,9.27
2018-07-21T20:17:30.184Z,9.40
2018-07-21T20:20:02.024Z,10.03
2018-07-21T20:22:35.419Z,9.20
2018-07-21T20:25:06.163Z,8.37
2018-07-21T20:27:42.409Z,8.77
2018-07-21T20:30:13.414Z,8.77
2018-07-21T20:32:47.009Z,9.30
2018-07-21T20:35:19.437Z,8.50
2018-07-21T20:37:51.499Z,9.90
2018-07-21T20:40:24.108Z,9.03
2018-07-21T20:42:56.333Z,8.03
2018-07-21T20:45:27.246Z,8.80
2018-07-21T20:47:58.766Z,8.90
2018-07-21T20:50:29.627Z,9.13
2018-07-21T20:52:59.921Z,8.77
2018-07-21T20:55:33.794Z,9.80
2018-07-21T20:58:08.687Z,9.27
2018-07-21T21:00:39.093Z,9.87
2018-07-21T21:03:09.533Z,9.97
2018-07-21T21:05:42.467Z,10.40
2018-07-21T21:08:16.165Z,10.40
2018-07-21T21:10:51.954Z,10.20
2018-07-21T21:13:25.679Z,9.53
2018-07-21T21:15:59.466Z,14.33
2018-07-21T21:18:32.363Z,12.27
2018-07-21T21:26:49.368Z,10.30
2018-07-21T21:29:19.846Z,10.70
2018-07-21T21:31:50.439Z,10.70
2018-07-21T21:34:23.502Z,10.40
2018-07-21T21:36:56.635Z,9.90
2018-07-21T21:39:27.704Z,11.57
2018-07-21T21:41:59.911Z,12.03
2018-07-21T21:44:34.844Z,11.30
2018-07-21T21:47:06.916Z,9.70
2018-07-21T21:49:37.088Z,10.13
2018-07-21T21:52:08.036Z,11.60
2018-07-21T21:54:38.229Z,10.40
2018-07-21T21:57:09.134Z,11.80
2018-07-21T21:59:41.823Z,10.43
2018-07-21T22:02:13.423Z,13.20
2018-07-21T22:04:46.852Z,12.67
2018-07-21T22:07:17.445Z,12.73
2018-07-21T22:09:50.467Z,12.53
2018-07-21T22:12:21.566Z,15.33
2018-07-21T22:14:53.762Z,14.37
2018-07-21T22:17:23.840Z,16.47
2018-07-21T22:19:54.734Z,14.60
2018-07-21T22:22:26.428Z,17.17
2018-07-21T22:24:56.668Z,15.23
2018-07-21T22:27:27.842Z,14.27
2018-07-21T22:29:58.554Z,14.87
2018-07-21T22:32:29.657Z,16.93
2018-07-21T22:34:59.941Z,19.77
2018-07-21T22:37:29.998Z,15.53
2018-07-21T22:40:01.280Z,15.97
2018-07-21T22:42:32.750Z,16.07
2018-07-21T22:45:03.404Z,14.73
2018-07-21T22:47:33.710Z,14.93
2018-07-21T22:50:04.802Z,16.30
2018-07-21T22:52:35.661Z,15.80
2018-07-21T22:55:06.008Z,14.07
2018-07-21T22:57:36.379Z,14.53
2018-07-21T23:00:09.363Z,14.27
2018-07-21T23:02:42.250Z,13.57
2018-07-21T23:05:13.533Z,14.00
2018-07-21T23:07:45.554Z,15.93
2018-07-21T23:10:17.020Z,16.40
2018-07-21T23:12:48.582Z,16.57
2018-07-21T23:15:18.819Z,16.73
2018-07-21T23:17:51.123Z,14.40
2018-07-21T23:20:23.855Z,15.47
2018-07-21T23:22:56.127Z,14.73
2018-07-21T23:25:27.350Z,14.20
2018-07-21T23:27:58.569Z,15.03
2018-07-21T23:30:29.020Z,14.10
2018-07-21T23:32:59.073Z,14.93
2018-07-21T23:35:29.415Z,15.13
2018-07-21T23:38:00.549Z,16.67
2018-07-21T23:40:30.689Z,15.03
2018-07-21T23:43:00.935Z,13.93
2018-07-21T23:45:31.082Z,15.17
2018-07-21T23:48:01.926Z,14.33
2018-07-21T23:50:33.594Z,17.30
2018-07-21T23:53:04.075Z,16.57
2018-07-21T23:55:34.402Z,14.70
2018-07-21T23:58:06.214Z,15.97
